Gillette, WY (82716)

9:40 PM MST on February 23, 2017 (GMT -0700)
Lakeland Hills | | Change Station
Active Advisory: Winter Weather Statement

Elev 4580 ft 44.30 °N, 105.48 °W | Updated 10 seconds ago

Overcast
Overcast
22.5 °F
Feels Like 15 °F
N
6.3
Wind Variable Wind from NNE
Gusts 11.2 mph

Today
High -- | Low -- °F
--% Chance of Precip.
Yesterday
High -- | Low -- °F
Precip. -- in
Pressure 30.05 in
Visibility 10.0 miles
Clouds Overcast 1900 ft
Windchill 15 °F
Dew Point 18 °F
Humidity 84%
Rainfall 0.00 in
Snow Depth Not available.
6:48 AM 5:42 PM
Waning Crescent, 7% visible
METAR KGCC 240353Z AUTO 06012KT 10SM OVC019 M04/M07 A2993 RMK AO2 SLP174 T10441072 $
Pressure 30.05 in
Visibility 10.0 miles
Clouds Overcast 1900 ft
Windchill 15 °F
Dew Point 18 °F
Humidity 84%
Rainfall 0.00 in
Snow Depth Not available.
6:48 AM 5:42 PM
Waning Crescent, 7% visible
METAR KGCC 240353Z AUTO 06012KT 10SM OVC019 M04/M07 A2993 RMK AO2 SLP174 T10441072 $

Get Your Daily Forecast Email!

Thanks for signing up!

Be on the lookout for a verification email in your inbox.

You'll start receiving the daily forecast at 8 AM.

×

10-Day Weather Forecast

Almanac

Astronomy

Feb. 23, 2017 Rise Set
Actual Time
Civil Twilight
Nautical Twilight
Astronomical Twilight
Moon
Length of Visible Light
Length of Day
Tomorrow will be .
, % of the Moon is Illuminated

Today's Extremes

State Highs State Lows

Community

WunderPhotos

Upload Photos

1,962,540 photos uploaded!

WunderBlog® & News

Nearby

Air Quality

  Air Quality AQ Index Pollutant
Not available.

Snow Depth

Station Depth Elevation

Earthquake Activity

City Distance Mag. Time & Date
Minimum magnitude displayed is 2.5.

Coastal Water Temperatures

Place Temperature

Stations

Nearby Weather Stations

Station Location Temp. Windchill Dew Point Humidity Wind Precip. Elev Updated Type
                   

Watches & Warnings

Winter Weather Statement
Issued: 9:38 PM MST Feb. 23, 2017 – National Weather Service

... Winter Weather Advisory is cancelled...

The National Weather Service in Rapid City has cancelled the
Winter Weather Advisory.